Time;durP1;ratioP1;P1;durP2;ratioP2;P2;SDS_P1;SDS_P2;PMS_P1;PMS_P2;Temp;Humidity;BMP_temperature;BMP_pressure;BME280_temperature;BME280_humidity;BME280_pressure;Samples;Min_cycle;Max_cycle;Signal;HPM_P1;HPM_P2
2021/06/27 00:01:23;;;;;;;8.43;5.73;;;20.00;99.90;;;;;;5016721;28;20927;-71
2021/06/27 00:03:51;;;;;;;9.30;6.10;;;20.00;99.90;;;;;;5016861;28;20541;-71
2021/06/27 00:06:20;;;;;;;9.90;6.80;;;20.00;99.90;;;;;;5016949;28;21066;-71
2021/06/27 00:08:47;;;;;;;7.50;5.53;;;20.00;99.90;;;;;;5016829;28;20545;-71
2021/06/27 00:11:15;;;;;;;6.57;5.47;;;19.90;99.90;;;;;;5015697;28;20449;-72
2021/06/27 00:13:44;;;;;;;8.27;5.60;;;19.90;99.90;;;;;;5016220;28;20442;-72
2021/06/27 00:16:11;;;;;;;9.20;6.30;;;19.80;99.90;;;;;;5016666;28;20468;-72
2021/06/27 00:18:38;;;;;;;10.03;6.37;;;19.80;99.90;;;;;;5016725;28;20475;-71
2021/06/27 00:21:08;;;;;;;9.50;6.10;;;19.80;99.90;;;;;;5016213;28;20482;-72
2021/06/27 00:23:40;;;;;;;7.60;5.83;;;19.80;99.90;;;;;;5016434;28;20536;-71
2021/06/27 00:26:10;;;;;;;9.97;7.10;;;19.70;99.90;;;;;;5016273;28;20559;-72
2021/06/27 00:28:37;;;;;;;9.83;6.03;;;19.70;99.90;;;;;;5016792;28;20459;-72
2021/06/27 00:31:04;;;;;;;8.77;5.90;;;19.70;99.90;;;;;;5015267;28;20456;-71
2021/06/27 00:33:32;;;;;;;7.77;6.60;;;19.70;99.90;;;;;;5016199;28;20454;-72
2021/06/27 00:35:59;;;;;;;7.20;5.90;;;19.60;99.90;;;;;;5016366;28;20826;-72
2021/06/27 00:38:27;;;;;;;7.83;6.00;;;19.60;99.90;;;;;;5016325;28;20935;-71
2021/06/27 00:40:55;;;;;;;9.50;6.07;;;19.50;99.90;;;;;;5015497;28;20480;-71
2021/06/27 00:43:22;;;;;;;8.93;6.20;;;19.40;99.90;;;;;;5015644;28;20567;-72
2021/06/27 00:45:50;;;;;;;10.20;7.13;;;19.40;99.90;;;;;;5015434;28;21046;-71
2021/06/27 00:48:17;;;;;;;7.27;5.60;;;19.30;99.90;;;;;;5016070;28;20822;-71
2021/06/27 00:50:46;;;;;;;7.20;5.67;;;19.40;99.90;;;;;;5015675;28;20448;-72
2021/06/27 00:53:13;;;;;;;8.00;6.10;;;19.30;99.90;;;;;;5015526;28;20449;-72
2021/06/27 00:55:40;;;;;;;10.40;5.97;;;19.30;99.90;;;;;;5015036;28;20512;-72
2021/06/27 00:58:09;;;;;;;6.72;5.55;;;19.30;99.90;;;;;;5015184;28;20453;-71
2021/06/27 01:00:38;;;;;;;8.13;6.40;;;19.40;99.90;;;;;;5014971;28;20225;-72
2021/06/27 01:03:05;;;;;;;8.53;5.97;;;19.40;99.90;;;;;;5015179;28;20440;-72
2021/06/27 01:05:34;;;;;;;9.10;6.50;;;19.40;99.90;;;;;;5015349;28;20902;-72
2021/06/27 01:08:02;;;;;;;7.30;6.20;;;19.40;99.90;;;;;;5015138;28;20548;-71
2021/06/27 01:10:29;;;;;;;8.63;6.43;;;19.30;99.90;;;;;;5015328;28;20543;-72
2021/06/27 01:12:57;;;;;;;9.30;5.93;;;19.30;99.90;;;;;;5015475;28;20300;-71
2021/06/27 01:15:26;;;;;;;7.00;5.83;;;19.30;99.90;;;;;;5015680;28;20505;-72
2021/06/27 01:17:55;;;;;;;10.23;6.10;;;19.30;99.90;;;;;;5015782;28;20449;-71
2021/06/27 01:20:24;;;;;;;7.87;5.50;;;19.30;99.90;;;;;;5015283;28;20480;-71
2021/06/27 01:22:54;;;;;;;7.80;6.30;;;19.30;99.90;;;;;;5015568;28;20528;-72
2021/06/27 01:25:24;;;;;;;8.90;6.37;;;19.30;99.90;;;;;;5015212;28;20975;-71
2021/06/27 01:27:51;;;;;;;7.33;5.90;;;19.30;99.90;;;;;;5015821;28;20576;-72
2021/06/27 01:30:19;;;;;;;9.87;6.33;;;19.30;99.90;;;;;;5014670;28;20449;-72
2021/06/27 01:32:49;;;;;;;6.40;5.73;;;19.30;99.90;;;;;;5014751;28;20529;-72
2021/06/27 01:35:17;;;;;;;6.37;5.47;;;19.30;99.90;;;;;;5014727;28;20558;-71
2021/06/27 01:37:46;;;;;;;6.93;5.43;;;19.30;99.90;;;;;;5014579;28;20452;-72
2021/06/27 01:40:18;;;;;;;7.70;5.05;;;19.30;99.90;;;;;;5014002;28;21009;-72
2021/06/27 01:42:45;;;;;;;6.07;5.18;;;19.30;99.90;;;;;;5014213;28;20252;-72
2021/06/27 01:45:15;;;;;;;6.23;5.03;;;19.30;99.90;;;;;;5014598;28;20225;-72
2021/06/27 01:47:41;;;;;;;8.27;5.90;;;19.20;99.90;;;;;;5014260;28;20952;-72
2021/06/27 01:50:10;;;;;;;8.53;6.07;;;19.20;99.90;;;;;;5014215;28;20445;-72
2021/06/27 01:52:37;;;;;;;7.03;5.67;;;19.20;99.90;;;;;;5014472;28;20449;-72
2021/06/27 01:55:05;;;;;;;11.30;6.80;;;19.20;99.90;;;;;;5014272;28;20834;-72
2021/06/27 01:57:34;;;;;;;9.45;6.57;;;19.10;99.90;;;;;;5014077;28;20527;-71
2021/06/27 02:00:02;;;;;;;8.83;6.13;;;19.10;99.90;;;;;;5013827;28;20247;-72
2021/06/27 02:02:28;;;;;;;7.65;6.15;;;19.00;99.90;;;;;;5013932;28;20451;-71
2021/06/27 02:04:55;;;;;;;7.40;6.32;;;18.70;99.90;;;;;;5013738;28;20205;-71
2021/06/27 02:07:22;;;;;;;8.27;6.20;;;18.70;99.90;;;;;;5014029;28;20201;-71
2021/06/27 02:09:49;;;;;;;8.55;6.38;;;18.70;99.90;;;;;;5013775;28;20443;-72
2021/06/27 02:12:16;;;;;;;11.57;6.40;;;18.80;99.90;;;;;;5013990;28;20206;-72
2021/06/27 02:14:44;;;;;;;7.82;6.40;;;18.80;99.90;;;;;;5014054;28;20547;-71
2021/06/27 02:17:11;;;;;;;8.00;5.93;;;18.90;99.90;;;;;;5013976;28;20237;-72
2021/06/27 02:19:38;;;;;;;6.82;4.72;;;18.90;99.90;;;;;;5014131;28;20528;-71
2021/06/27 02:22:05;;;;;;;7.00;4.53;;;19.00;99.90;;;;;;5013770;28;20559;-71
2021/06/27 02:24:33;;;;;;;5.70;5.10;;;19.00;99.90;;;;;;5013925;28;20472;-71
2021/06/27 02:27:00;;;;;;;6.70;4.70;;;19.00;99.90;;;;;;5013978;28;20233;-71
2021/06/27 02:29:27;;;;;;;6.75;5.57;;;18.90;99.90;;;;;;5014239;28;20444;-72
2021/06/27 02:31:58;;;;;;;7.60;5.30;;;18.90;99.90;;;;;;5013440;28;20214;-72
2021/06/27 02:34:25;;;;;;;6.47;4.80;;;18.90;99.90;;;;;;5014141;28;20456;-72
2021/06/27 02:36:52;;;;;;;8.77;5.90;;;18.90;99.90;;;;;;5013493;28;21052;-72
2021/06/27 02:39:19;;;;;;;7.82;6.20;;;18.80;99.90;;;;;;5013764;28;20478;-71
2021/06/27 02:41:46;;;;;;;6.75;5.00;;;18.60;99.90;;;;;;5013502;28;20228;-71
2021/06/27 02:44:13;;;;;;;10.25;6.30;;;18.40;99.90;;;;;;5013945;28;20296;-71
2021/06/27 02:46:40;;;;;;;8.50;6.22;;;18.40;99.90;;;;;;5014048;28;20225;-71
2021/06/27 02:49:08;;;;;;;8.52;5.72;;;18.40;99.90;;;;;;5013552;28;20544;-71
2021/06/27 02:51:35;;;;;;;6.43;4.20;;;18.40;99.90;;;;;;5013244;28;20742;-71
2021/06/27 02:54:01;;;;;;;8.07;5.55;;;18.50;99.90;;;;;;5013785;28;20663;-72
2021/06/27 02:56:29;;;;;;;8.00;5.20;;;18.50;99.90;;;;;;5017092;28;20315;-71
2021/06/27 02:58:56;;;;;;;5.15;4.40;;;18.60;99.90;;;;;;5017311;28;20300;-71
2021/06/27 03:01:23;;;;;;;7.32;4.75;;;18.60;99.90;;;;;;5017073;28;20316;-71
2021/06/27 03:03:51;;;;;;;6.85;4.57;;;18.60;99.90;;;;;;5017267;28;20296;-71
2021/06/27 03:06:20;;;;;;;8.20;5.50;;;18.60;99.90;;;;;;5017348;28;20303;-72
2021/06/27 03:08:47;;;;;;;6.78;5.40;;;18.60;99.90;;;;;;5017340;28;20204;-72
2021/06/27 03:11:14;;;;;;;6.60;5.15;;;18.60;99.90;;;;;;5017165;28;20208;-72
2021/06/27 03:13:42;;;;;;;9.95;5.57;;;18.60;99.90;;;;;;5017156;28;20216;-72
2021/06/27 03:16:10;;;;;;;7.30;5.15;;;18.60;99.90;;;;;;5017061;28;20222;-72
2021/06/27 03:18:38;;;;;;;6.22;5.53;;;18.70;99.90;;;;;;5016776;28;20210;-72
2021/06/27 03:21:06;;;;;;;6.45;4.72;;;18.60;99.90;;;;;;5016587;28;20317;-72
2021/06/27 03:23:34;;;;;;;9.93;5.50;;;18.60;99.90;;;;;;5016976;28;20249;-72
2021/06/27 03:26:01;;;;;;;7.68;4.68;;;18.60;99.90;;;;;;5016642;28;20260;-72
2021/06/27 03:28:32;;;;;;;5.82;5.22;;;18.60;99.90;;;;;;5016673;28;20219;-72
2021/06/27 03:30:59;;;;;;;6.05;5.13;;;18.60;99.90;;;;;;5016502;28;20608;-72
2021/06/27 03:33:26;;;;;;;8.27;5.90;;;18.60;99.90;;;;;;5017020;28;20296;-71
2021/06/27 03:35:53;;;;;;;7.22;5.82;;;18.60;99.90;;;;;;5016571;28;20336;-72
2021/06/27 03:38:24;;;;;;;7.30;5.90;;;18.60;99.90;;;;;;5016789;28;20267;-72
2021/06/27 03:40:52;;;;;;;7.10;5.30;;;18.60;99.90;;;;;;5016550;28;20489;-72
2021/06/27 03:43:19;;;;;;;7.03;5.60;;;18.70;99.90;;;;;;5016677;28;20494;-72
2021/06/27 03:45:46;;;;;;;5.25;4.72;;;18.70;99.90;;;;;;5016397;28;20555;-72
2021/06/27 03:48:13;;;;;;;5.72;5.13;;;18.70;99.90;;;;;;5016427;28;20205;-71
2021/06/27 03:50:40;;;;;;;8.82;5.88;;;18.50;99.90;;;;;;5016110;28;20291;-72
2021/06/27 03:53:07;;;;;;;8.63;5.40;;;18.40;99.90;;;;;;5016091;28;20260;-72
2021/06/27 03:55:34;;;;;;;7.18;5.60;;;18.40;99.90;;;;;;5016258;28;20315;-71
2021/06/27 03:58:02;;;;;;;9.13;5.68;;;18.50;99.90;;;;;;5016226;28;20215;-71
2021/06/27 04:00:29;;;;;;;8.18;5.32;;;18.50;99.90;;;;;;5016068;28;20252;-72
2021/06/27 04:02:56;;;;;;;7.30;5.75;;;18.50;99.90;;;;;;5016426;28;20571;-72
2021/06/27 04:05:22;;;;;;;7.87;5.80;;;18.50;99.90;;;;;;5015711;28;20228;-72
2021/06/27 04:07:49;;;;;;;7.78;5.35;;;18.60;99.90;;;;;;5015270;28;20452;-71
2021/06/27 04:10:16;;;;;;;7.47;4.80;;;18.60;99.90;;;;;;5016042;28;20290;-72
2021/06/27 04:12:43;;;;;;;5.40;4.60;;;18.60;99.90;;;;;;5016043;28;20200;-71
2021/06/27 04:15:11;;;;;;;5.47;4.80;;;18.70;99.90;;;;;;5015852;28;20259;-71
2021/06/27 04:17:39;;;;;;;5.77;4.30;;;18.70;99.90;;;;;;5016053;28;20220;-71
2021/06/27 04:20:08;;;;;;;6.10;4.87;;;18.80;99.90;;;;;;5015966;28;20527;-72
2021/06/27 04:22:35;;;;;;;9.35;5.28;;;18.90;99.90;;;;;;5016027;28;20506;-72
2021/06/27 04:25:02;;;;;;;6.40;5.53;;;18.80;99.90;;;;;;5016075;28;20211;-72
2021/06/27 04:27:30;;;;;;;5.70;4.75;;;18.80;99.90;;;;;;5015631;28;20671;-72
2021/06/27 04:29:57;;;;;;;7.45;4.97;;;18.60;99.90;;;;;;5015463;28;20208;-71
2021/06/27 04:32:25;;;;;;;5.85;4.65;;;18.50;99.90;;;;;;5015371;28;20625;-71
2021/06/27 04:34:52;;;;;;;10.85;5.55;;;18.40;99.90;;;;;;5015369;28;20205;-71
2021/06/27 04:37:19;;;;;;;7.85;5.30;;;18.30;99.90;;;;;;5015495;28;20205;-72
2021/06/27 04:39:46;;;;;;;8.45;5.97;;;18.20;99.90;;;;;;5015202;28;20297;-71
2021/06/27 04:42:13;;;;;;;8.88;5.40;;;18.20;99.90;;;;;;5015132;28;20252;-71
2021/06/27 04:44:40;;;;;;;7.35;5.05;;;18.20;99.90;;;;;;5015236;28;20204;-71
2021/06/27 04:47:08;;;;;;;7.50;5.30;;;18.30;99.90;;;;;;5015176;28;20247;-72
2021/06/27 04:49:38;;;;;;;5.50;4.60;;;18.30;99.90;;;;;;5015096;28;20679;-71
2021/06/27 04:52:07;;;;;;;6.35;5.53;;;18.40;99.90;;;;;;5015199;28;20295;-72
2021/06/27 04:54:34;;;;;;;7.53;6.00;;;18.50;99.90;;;;;;5015257;28;20231;-72
2021/06/27 04:57:01;;;;;;;8.20;5.87;;;18.60;99.90;;;;;;5015190;28;20231;-71
2021/06/27 04:59:28;;;;;;;6.15;5.55;;;18.70;99.90;;;;;;5015238;28;20540;-72
2021/06/27 05:01:54;;;;;;;8.40;5.30;;;18.80;99.90;;;;;;5014704;28;20316;-71
2021/06/27 05:04:22;;;;;;;8.90;4.87;;;18.90;99.90;;;;;;5015298;28;20531;-72
2021/06/27 05:06:50;;;;;;;9.60;6.57;;;18.90;99.90;;;;;;5015208;28;20554;-71
2021/06/27 05:09:17;;;;;;;10.05;6.05;;;18.80;99.90;;;;;;5015129;28;20298;-72
2021/06/27 05:11:43;;;;;;;6.68;5.60;;;18.70;99.90;;;;;;5014950;28;20197;-72
2021/06/27 05:14:10;;;;;;;8.13;5.70;;;18.70;99.90;;;;;;5014739;28;20714;-72
2021/06/27 05:16:37;;;;;;;7.38;5.32;;;18.70;99.90;;;;;;5014834;28;20308;-72
2021/06/27 05:19:04;;;;;;;8.40;6.30;;;18.70;99.90;;;;;;5014494;28;20259;-72
2021/06/27 05:21:30;;;;;;;10.13;6.15;;;18.60;99.90;;;;;;5014624;28;20224;-72
2021/06/27 05:23:59;;;;;;;6.63;5.20;;;18.60;99.90;;;;;;5014669;28;20200;-72
2021/06/27 05:26:25;;;;;;;10.02;6.55;;;18.50;99.90;;;;;;5014304;28;20228;-71
2021/06/27 05:28:52;;;;;;;7.78;5.90;;;18.50;99.90;;;;;;5014245;28;20795;-72
2021/06/27 05:31:19;;;;;;;9.20;5.65;;;18.50;99.90;;;;;;5014386;28;20209;-72
2021/06/27 05:33:46;;;;;;;6.82;5.68;;;18.50;99.90;;;;;;5014396;28;20663;-71
2021/06/27 05:36:13;;;;;;;9.23;6.28;;;18.70;99.90;;;;;;5014820;28;20243;-72
2021/06/27 05:38:40;;;;;;;8.30;5.80;;;18.80;99.90;;;;;;5014554;28;20297;-72
2021/06/27 05:41:08;;;;;;;6.80;5.27;;;18.90;99.90;;;;;;5014492;28;20734;-72
2021/06/27 05:43:35;;;;;;;8.80;5.67;;;19.10;99.90;;;;;;5015126;28;20492;-72
2021/06/27 05:46:02;;;;;;;7.28;5.63;;;19.20;99.90;;;;;;5015279;28;20504;-72
2021/06/27 05:48:29;;;;;;;8.17;5.67;;;19.40;99.90;;;;;;5015410;28;20209;-71
2021/06/27 05:50:56;;;;;;;6.88;5.07;;;19.40;99.90;;;;;;5014042;28;20456;-71
2021/06/27 05:53:23;;;;;;;6.47;5.37;;;19.20;99.90;;;;;;5014408;28;20304;-71
2021/06/27 05:56:08;;;;;;;7.20;5.50;;;19.20;99.90;;;;;;5014893;28;20897;-72
2021/06/27 05:58:37;;;;;;;7.07;5.50;;;19.30;99.90;;;;;;5014165;28;21009;-71
2021/06/27 06:01:04;;;;;;;6.73;5.17;;;19.20;99.90;;;;;;5013943;28;20476;-71
2021/06/27 06:03:31;;;;;;;8.43;5.60;;;19.20;99.90;;;;;;5014310;28;20782;-72
2021/06/27 06:05:58;;;;;;;7.83;5.23;;;19.20;99.90;;;;;;5014028;28;20472;-72
2021/06/27 06:08:25;;;;;;;6.40;5.70;;;19.10;99.90;;;;;;5014125;28;20452;-72
2021/06/27 06:10:52;;;;;;;8.60;5.93;;;19.10;99.90;;;;;;5013848;28;20531;-71
2021/06/27 06:13:19;;;;;;;9.90;6.32;;;19.10;99.90;;;;;;5013922;28;20200;-72
2021/06/27 06:15:47;;;;;;;7.00;5.13;;;19.10;99.90;;;;;;5013970;28;20315;-71
2021/06/27 06:18:14;;;;;;;7.20;5.10;;;19.20;99.90;;;;;;5014208;28;20453;-71
2021/06/27 06:20:40;;;;;;;7.57;5.30;;;19.30;99.90;;;;;;5013640;28;20449;-71
2021/06/27 06:23:07;;;;;;;8.70;5.53;;;19.40;99.90;;;;;;5014014;28;20860;-72
2021/06/27 06:25:34;;;;;;;6.53;5.50;;;19.50;99.90;;;;;;5014384;28;20465;-72
2021/06/27 06:28:01;;;;;;;6.87;4.87;;;19.60;99.90;;;;;;5014628;28;20480;-71
2021/06/27 06:30:28;;;;;;;8.77;5.50;;;19.70;99.90;;;;;;5016932;28;20834;-72
2021/06/27 06:32:56;;;;;;;6.90;5.00;;;19.70;99.90;;;;;;5018743;28;20449;-72
2021/06/27 06:35:23;;;;;;;6.80;5.50;;;19.80;99.90;;;;;;5018746;28;20901;-71
2021/06/27 06:37:50;;;;;;;7.40;5.43;;;19.70;99.90;;;;;;5017808;28;20453;-71
2021/06/27 06:40:16;;;;;;;7.23;5.73;;;19.60;99.90;;;;;;5017467;28;20450;-71
2021/06/27 06:42:43;;;;;;;8.07;5.40;;;19.60;99.90;;;;;;5017641;28;20485;-71
2021/06/27 06:45:11;;;;;;;5.87;5.27;;;19.70;99.90;;;;;;5017780;28;20552;-72
2021/06/27 06:47:37;;;;;;;6.10;5.50;;;20.00;99.90;;;;;;5018684;28;20445;-71
2021/06/27 06:50:07;;;;;;;6.23;5.60;;;20.10;99.90;;;;;;5017709;28;20497;-72
2021/06/27 06:52:34;;;;;;;8.43;5.30;;;20.30;99.90;;;;;;5018091;28;20472;-72
2021/06/27 06:55:01;;;;;;;7.33;5.60;;;20.40;99.90;;;;;;5018008;28;20546;-71
2021/06/27 06:57:28;;;;;;;5.80;5.23;;;20.50;99.90;;;;;;5018148;28;20556;-71
2021/06/27 06:59:54;;;;;;;5.37;4.57;;;20.60;99.90;;;;;;5017704;28;20450;-72
2021/06/27 07:02:21;;;;;;;9.23;5.23;;;20.70;99.90;;;;;;5017774;28;20904;-72
2021/06/27 07:04:48;;;;;;;7.20;5.97;;;20.80;99.90;;;;;;5017578;28;20451;-72
2021/06/27 07:07:16;;;;;;;7.30;5.80;;;20.90;99.90;;;;;;5017837;28;20537;-72
2021/06/27 07:09:43;;;;;;;7.93;5.53;;;21.00;99.90;;;;;;5017576;28;20447;-72
2021/06/27 07:12:11;;;;;;;5.90;5.40;;;21.00;99.90;;;;;;5017501;28;20542;-71
2021/06/27 07:14:38;;;;;;;7.53;5.10;;;21.00;99.90;;;;;;5017779;28;20542;-71
2021/06/27 07:17:05;;;;;;;5.90;5.30;;;21.00;99.90;;;;;;5017485;28;20502;-71
2021/06/27 07:19:32;;;;;;;5.83;4.70;;;20.90;99.90;;;;;;5017269;28;20453;-72
2021/06/27 07:21:59;;;;;;;5.63;4.60;;;21.00;99.90;;;;;;5017502;28;20529;-72
2021/06/27 07:24:27;;;;;;;7.07;5.37;;;21.10;99.90;;;;;;5017477;28;20451;-72
2021/06/27 07:26:54;;;;;;;5.17;4.67;;;21.20;99.90;;;;;;5017031;28;20474;-71
2021/06/27 07:29:20;;;;;;;6.87;4.90;;;21.40;99.90;;;;;;5017231;28;20542;-72
2021/06/27 07:31:47;;;;;;;5.80;5.17;;;21.50;99.90;;;;;;5016861;28;20550;-71
2021/06/27 07:34:14;;;;;;;5.80;4.50;;;21.70;99.90;;;;;;5016576;28;20442;-71
2021/06/27 07:36:41;;;;;;;5.30;4.77;;;21.80;99.90;;;;;;5017014;28;20673;-71
2021/06/27 07:39:08;;;;;;;6.30;5.03;;;22.00;99.90;;;;;;5016860;28;20444;-71
2021/06/27 07:41:36;;;;;;;4.47;4.07;;;22.10;99.90;;;;;;5016129;28;20567;-71
2021/06/27 07:44:03;;;;;;;5.37;4.23;;;22.10;99.90;;;;;;5016980;28;20448;-72
2021/06/27 07:46:30;;;;;;;5.77;4.80;;;22.10;99.90;;;;;;5016425;28;20559;-72
2021/06/27 07:48:57;;;;;;;5.13;4.63;;;22.20;99.90;;;;;;5016628;28;20451;-72
2021/06/27 07:51:24;;;;;;;5.40;4.17;;;22.30;99.90;;;;;;5016060;28;20543;-71
2021/06/27 07:53:51;;;;;;;4.97;4.50;;;22.50;99.90;;;;;;5016258;28;20452;-71
2021/06/27 07:56:18;;;;;;;4.57;4.10;;;23.30;99.90;;;;;;5016180;28;20559;-71
2021/06/27 07:58:46;;;;;;;5.27;4.30;;;24.50;99.90;;;;;;5016919;28;20518;-71
2021/06/27 08:01:13;;;;;;;4.60;4.10;;;25.60;99.90;;;;;;5016487;28;20479;-72
2021/06/27 08:03:40;;;;;;;4.70;4.20;;;26.20;99.90;;;;;;5016228;28;20563;-72
2021/06/27 08:06:07;;;;;;;8.10;5.57;;;26.50;99.30;;;;;;5016810;28;20526;-71
2021/06/27 08:08:33;;;;;;;4.47;3.70;;;26.10;99.80;;;;;;5017158;28;20822;-72
2021/06/27 08:11:00;;;;;;;4.33;3.93;;;26.00;99.50;;;;;;5016349;28;20447;-72
2021/06/27 08:13:27;;;;;;;4.30;3.90;;;26.00;99.40;;;;;;5016546;28;20454;-72
2021/06/27 08:15:57;;;;;;;3.60;3.30;;;26.40;98.40;;;;;;5016254;28;20562;-72
2021/06/27 08:18:24;;;;;;;3.97;3.67;;;27.10;97.40;;;;;;5016325;28;20857;-72
2021/06/27 08:20:51;;;;;;;4.00;3.60;;;27.40;96.60;;;;;;5015804;28;20451;-71
2021/06/27 08:23:18;;;;;;;4.37;3.97;;;28.00;95.10;;;;;;5015746;28;20908;-72
2021/06/27 08:25:45;;;;;;;3.70;3.40;;;28.30;94.10;;;;;;5015974;28;20997;-72
2021/06/27 08:28:12;;;;;;;4.53;4.10;;;28.30;93.40;;;;;;5015962;28;20538;-72
2021/06/27 08:30:39;;;;;;;4.47;4.07;;;28.40;92.40;;;;;;5016069;28;20545;-73
2021/06/27 08:33:07;;;;;;;4.40;3.87;;;28.40;92.70;;;;;;5015716;28;20535;-72
2021/06/27 08:35:34;;;;;;;5.37;4.80;;;28.40;92.80;;;;;;5015907;28;20470;-72
2021/06/27 08:38:01;;;;;;;4.90;4.37;;;28.00;92.50;;;;;;5016158;28;20787;-72
2021/06/27 08:40:28;;;;;;;4.00;3.67;;;27.50;94.20;;;;;;5015722;28;20457;-73
2021/06/27 08:42:55;;;;;;;4.53;4.13;;;27.60;93.10;;;;;;5015739;28;20483;-72
2021/06/27 08:45:23;;;;;;;4.20;3.80;;;27.90;92.20;;;;;;5015668;28;20460;-72
2021/06/27 08:47:53;;;;;;;4.00;3.60;;;28.50;91.10;;;;;;5015645;28;20506;-72
2021/06/27 08:50:22;;;;;;;3.77;3.47;;;29.40;90.40;;;;;;5015821;28;20453;-72
2021/06/27 08:52:49;;;;;;;3.70;3.30;;;30.30;85.70;;;;;;5015631;28;20440;-73
2021/06/27 08:55:16;;;;;;;3.60;3.30;;;31.10;74.90;;;;;;5016177;28;21003;-73
2021/06/27 08:57:44;;;;;;;3.70;3.40;;;31.50;77.10;;;;;;5015854;28;20930;-73
2021/06/27 09:00:12;;;;;;;4.23;3.83;;;32.30;74.20;;;;;;5016253;28;20454;-72
2021/06/27 09:02:39;;;;;;;5.23;4.50;;;33.10;69.50;;;;;;5015506;28;20479;-73
2021/06/27 09:05:09;;;;;;;3.97;3.60;;;35.10;66.60;;;;;;5015255;28;20483;-73
2021/06/27 09:07:38;;;;;;;4.03;3.73;;;36.50;59.50;;;;;;5015125;28;20479;-70
2021/06/27 09:10:07;;;;;;;4.43;4.03;;;36.90;55.30;;;;;;5015181;28;20810;-71
2021/06/27 09:12:49;;;;;;;3.50;3.30;;;38.20;53.00;;;;;;5015017;28;20453;-71
2021/06/27 09:15:34;;;;;;;3.33;3.03;;;38.60;48.70;;;;;;5014614;28;20468;-70
2021/06/27 09:18:05;;;;;;;2.87;2.67;;;39.40;46.60;;;;;;5014689;28;20872;-71
2021/06/27 09:20:32;;;;;;;4.87;3.10;;;39.10;43.00;;;;;;5014871;28;20873;-71
2021/06/27 09:23:00;;;;;;;3.60;3.30;;;38.30;43.80;;;;;;5014662;28;20571;-72
2021/06/27 09:25:28;;;;;;;3.10;2.90;;;37.10;46.40;;;;;;5015334;28;21057;-73
2021/06/27 09:28:01;;;;;;;3.70;3.47;;;37.70;45.50;;;;;;5015316;28;20475;-73
2021/06/27 09:30:30;;;;;;;2.87;2.67;;;38.60;44.20;;;;;;5014555;28;21040;-73
2021/06/27 09:32:59;;;;;;;3.20;2.90;;;39.80;44.00;;;;;;5014635;28;20531;-73
2021/06/27 09:35:52;;;;;;;2.90;2.73;;;40.40;42.60;;;;;;5014790;28;20555;-74
2021/06/27 09:38:25;;;;;;;2.73;2.53;;;41.40;39.00;;;;;;5001101;28;20848;-73
2021/06/27 09:40:54;;;;;;;3.37;3.07;;;42.20;39.40;;;;;;5014232;28;20530;-73
2021/06/27 09:43:21;;;;;;;2.90;2.70;;;42.00;36.30;;;;;;5014271;28;20567;-71
2021/06/27 09:45:50;;;;;;;3.30;3.10;;;42.60;35.20;;;;;;5014062;28;20562;-71
2021/06/27 09:48:18;;;;;;;2.67;2.50;;;42.30;36.10;;;;;;5014294;28;20538;-71
2021/06/27 09:50:45;;;;;;;3.10;2.90;;;41.60;37.10;;;;;;5014029;28;20795;-70
2021/06/27 09:53:35;;;;;;;2.50;2.40;;;41.70;35.70;;;;;;5014252;28;20520;-71
2021/06/27 09:56:04;;;;;;;2.23;2.13;;;42.30;35.90;;;;;;5010195;28;20562;-71
2021/06/27 09:58:31;;;;;;;3.17;2.97;;;42.20;36.30;;;;;;5014054;28;20798;-71
2021/06/27 10:00:58;;;;;;;3.00;2.80;;;42.40;36.50;;;;;;5013679;28;20542;-72
2021/06/27 10:03:27;;;;;;;2.70;2.50;;;42.80;35.80;;;;;;5013803;28;20483;-72
2021/06/27 10:06:05;;;;;;;2.40;2.30;;;42.80;34.80;;;;;;5013473;28;20551;-71
2021/06/27 10:08:32;;;;;;;3.67;3.37;;;43.00;35.80;;;;;;5014055;28;20424;-71
2021/06/27 10:11:13;;;;;;;3.20;3.00;;;42.70;33.60;;;;;;5013821;28;20452;-71
2021/06/27 10:13:41;;;;;;;3.60;3.30;;;42.50;34.00;;;;;;5014180;28;20989;-71
2021/06/27 10:16:10;;;;;;;3.17;2.97;;;42.00;35.00;;;;;;5013754;28;20532;-71
2021/06/27 10:18:37;;;;;;;2.50;2.30;;;41.60;34.70;;;;;;5013927;28;20877;-71
2021/06/27 10:21:05;;;;;;;2.33;2.23;;;41.90;35.60;;;;;;5014005;28;20530;-71
2021/06/27 10:23:32;;;;;;;3.17;2.87;;;41.60;33.30;;;;;;5013637;28;20484;-71
2021/06/27 10:26:00;;;;;;;2.70;2.50;;;40.20;34.70;;;;;;5014183;28;20563;-71
2021/06/27 10:28:28;;;;;;;2.47;2.27;;;38.60;36.30;;;;;;5014120;28;20535;-73
2021/06/27 10:30:56;;;;;;;2.43;2.23;;;37.50;38.30;;;;;;5014333;28;20889;-73
2021/06/27 10:33:23;;;;;;;2.70;2.50;;;36.30;40.20;;;;;;5014995;28;20436;-73
2021/06/27 10:35:51;;;;;;;2.73;2.53;;;35.10;43.00;;;;;;5015073;28;21053;-73
2021/06/27 10:38:22;;;;;;;2.93;2.73;;;34.60;44.40;;;;;;5015667;28;20455;-73
2021/06/27 10:40:50;;;;;;;2.53;2.20;;;33.80;45.00;;;;;;5014970;28;20444;-73
2021/06/27 10:43:17;;;;;;;3.23;2.93;;;33.60;45.30;;;;;;5014991;28;20576;-73
2021/06/27 10:46:02;;;;;;;3.43;3.13;;;33.60;46.80;;;;;;5015577;28;20559;-73
2021/06/27 10:48:40;;;;;;;2.80;2.60;;;33.30;47.80;;;;;;5014721;28;20440;-73
2021/06/27 10:51:09;;;;;;;2.63;2.43;;;33.00;46.00;;;;;;5014596;28;20451;-73
2021/06/27 10:54:14;;;;;;;2.80;2.60;;;32.60;47.20;;;;;;5014394;28;20439;-73
2021/06/27 10:56:56;;;;;;;2.27;2.17;;;32.40;47.70;;;;;;5014253;28;20903;-73
2021/06/27 10:59:55;;;;;;;2.50;2.30;;;32.20;48.90;;;;;;5014636;28;20447;-73
2021/06/27 11:02:41;;;;;;;3.20;2.90;;;32.20;48.60;;;;;;5014822;28;20497;-73
2021/06/27 11:05:48;;;;;;;2.80;2.43;;;32.00;51.10;;;;;;5014462;28;20449;-73
2021/06/27 11:08:30;;;;;;;2.60;2.40;;;31.80;49.10;;;;;;5008980;28;20542;-74
2021/06/27 11:11:03;;;;;;;2.37;2.17;;;31.70;50.00;;;;;;5013860;28;20501;-73
2021/06/27 11:13:30;;;;;;;3.00;2.73;;;31.70;53.10;;;;;;5014115;28;20444;-73
2021/06/27 11:16:04;;;;;;;2.93;2.63;;;31.50;50.00;;;;;;5015194;28;20471;-73
2021/06/27 11:18:34;;;;;;;3.00;2.77;;;31.40;52.20;;;;;;5017412;28;20524;-72
2021/06/27 11:21:16;;;;;;;2.80;2.57;;;31.30;51.70;;;;;;5017352;28;20451;-73
2021/06/27 11:23:54;;;;;;;2.90;2.40;;;31.50;51.90;;;;;;5017975;28;20478;-73
2021/06/27 11:26:47;;;;;;;2.70;2.50;;;31.40;51.20;;;;;;5017415;28;20518;-73
2021/06/27 11:29:43;;;;;;;3.00;2.57;;;31.20;50.90;;;;;;5016955;28;20439;-72
2021/06/27 11:32:43;;;;;;;3.07;2.80;;;31.10;52.10;;;;;;5016827;28;20881;-73
2021/06/27 11:35:27;;;;;;;2.70;2.50;;;31.10;51.70;;;;;;5016536;28;20476;-73
2021/06/27 11:37:53;;;;;;;2.63;2.43;;;30.90;51.40;;;;;;5014366;28;20460;-73
2021/06/27 11:40:45;;;;;;;3.23;2.73;;;30.80;51.90;;;;;;5016556;28;20534;-73
2021/06/27 11:43:12;;;;;;;2.60;2.33;;;30.80;54.10;;;;;;5016635;28;20475;-72
2021/06/27 11:45:50;;;;;;;2.23;2.13;;;30.80;52.10;;;;;;5016521;28;20545;-73
2021/06/27 11:48:21;;;;;;;2.80;2.40;;;30.70;51.90;;;;;;5016780;28;20542;-72
2021/06/27 11:50:54;;;;;;;3.50;2.50;;;30.70;54.00;;;;;;5016506;28;20538;-72
2021/06/27 11:53:24;;;;;;;2.37;2.17;;;30.90;53.60;;;;;;5016583;28;20447;-72
2021/06/27 11:56:05;;;;;;;2.40;2.20;;;30.90;52.40;;;;;;5016106;28;21001;-72
2021/06/27 11:58:33;;;;;;;2.70;2.50;;;31.00;52.50;;;;;;5017181;28;20436;-73
2021/06/27 12:01:12;;;;;;;2.90;2.70;;;31.20;52.40;;;;;;5017347;28;20445;-73
2021/06/27 12:03:47;;;;;;;2.30;2.20;;;31.30;50.40;;;;;;5016415;28;20475;-73
2021/06/27 12:06:16;;;;;;;2.83;2.63;;;31.20;51.20;;;;;;5016117;28;20498;-72
2021/06/27 12:08:47;;;;;;;2.50;2.30;;;31.10;51.00;;;;;;5016370;28;20534;-72
2021/06/27 12:11:14;;;;;;;3.30;3.00;;;31.10;50.30;;;;;;5016025;28;20468;-72
2021/06/27 12:13:41;;;;;;;3.07;2.77;;;31.10;51.10;;;;;;5016244;28;20440;-72
2021/06/27 12:16:08;;;;;;;3.20;2.90;;;31.10;52.70;;;;;;5016047;28;20510;-72
2021/06/27 12:18:36;;;;;;;2.70;2.50;;;31.00;53.60;;;;;;5015973;28;20479;-72
2021/06/27 12:21:07;;;;;;;2.37;2.17;;;30.90;52.00;;;;;;5015678;28;20938;-72
2021/06/27 12:23:38;;;;;;;2.43;2.23;;;30.90;52.10;;;;;;5016044;28;20483;-72
2021/06/27 12:26:07;;;;;;;2.60;2.40;;;30.90;52.90;;;;;;5016461;28;20561;-73
2021/06/27 12:28:37;;;;;;;2.70;2.50;;;30.70;52.20;;;;;;5015152;28;20530;-72
2021/06/27 12:31:12;;;;;;;2.33;2.13;;;30.80;52.30;;;;;;5015553;28;21001;-72
2021/06/27 12:33:40;;;;;;;2.40;2.20;;;30.90;53.30;;;;;;5016055;28;20630;-73
2021/06/27 12:36:09;;;;;;;2.50;2.30;;;31.10;53.20;;;;;;5016027;28;21064;-73
2021/06/27 12:38:40;;;;;;;2.17;1.97;;;31.10;49.90;;;;;;5016496;28;20448;-72
2021/06/27 12:41:10;;;;;;;3.03;2.83;;;31.20;48.90;;;;;;5016190;28;20531;-72
2021/06/27 12:43:42;;;;;;;3.10;2.90;;;31.00;51.10;;;;;;5015523;28;20510;-72
2021/06/27 12:46:29;;;;;;;2.40;2.20;;;31.00;50.10;;;;;;5015219;28;20475;-72
2021/06/27 12:49:14;;;;;;;3.20;3.00;;;31.00;50.10;;;;;;5015865;28;20447;-72
2021/06/27 12:51:44;;;;;;;2.87;2.67;;;31.00;50.50;;;;;;5015360;28;20530;-73
2021/06/27 12:54:20;;;;;;;2.30;2.13;;;31.00;52.90;;;;;;5015617;28;20444;-72
2021/06/27 12:56:53;;;;;;;3.37;3.07;;;31.10;51.80;;;;;;5015141;28;20831;-72